Terminal Aerodrome Forecast
Issued by NWS

Home | Current Version | Previous Version | Text Only | Print | Product List | Glossary On
Versions: 1 2 3 4 5 6 7 8 9 10 11 12 13 14 15 16 17 18
000
FTAK31 PAJN 110654 AAA
TAFAKT
TAF AMD
PAKT 110654Z 1107/1206 16015G25KT 4SM RA BR SCT020 BKN030 OVC050
      WS020/14050KT
      TEMPO 1107/1109 14022G32KT
     FM111500 15012KT 3SM BR VCSH SCT008 SCT025 BKN110 WS020/15040KT
     FM111900 14014G22KT P6SM VCSH SCT015 BKN050
      AMD LTD TO CLD VIS AND WIND TIL 111500=

USA.gov is the U.S. government's official web portal to all federal, state and local government web resources and services.